createdAt,value
2022-12-22T00:01:17.350Z,29.15
2022-12-22T00:04:21.194Z,30.58
2022-12-22T00:07:24.971Z,30.50
2022-12-22T00:10:29.121Z,26.30
2022-12-22T00:13:34.761Z,30.33
2022-12-22T00:16:38.620Z,30.17
2022-12-22T00:19:43.682Z,28.20
2022-12-22T00:22:47.519Z,27.75
2022-12-22T00:25:51.464Z,27.42
2022-12-22T00:28:55.685Z,27.75
2022-12-22T00:32:00.109Z,32.90
2022-12-22T00:35:04.785Z,27.50
2022-12-22T00:38:08.631Z,29.00
2022-12-22T00:41:12.607Z,27.25
2022-12-22T00:44:16.426Z,30.73
2022-12-22T00:47:20.170Z,29.02
2022-12-22T00:50:26.824Z,29.45
2022-12-22T00:53:30.706Z,29.88
2022-12-22T00:56:34.824Z,26.10
2022-12-22T00:59:39.079Z,24.17
2022-12-22T01:02:42.880Z,28.38
2022-12-22T01:05:46.618Z,26.10
2022-12-22T01:08:51.999Z,27.52
2022-12-22T01:11:56.045Z,32.42
2022-12-22T01:14:59.812Z,23.65
2022-12-22T01:18:03.512Z,28.33
2022-12-22T01:21:08.672Z,26.50
2022-12-22T01:24:12.395Z,29.02
2022-12-22T01:27:16.576Z,26.90
2022-12-22T01:30:20.788Z,28.05
2022-12-22T01:33:31.344Z,29.80
2022-12-22T01:36:35.637Z,27.75
2022-12-22T01:39:39.724Z,27.45
2022-12-22T01:42:45.054Z,27.58
2022-12-22T01:45:52.199Z,27.67
2022-12-22T01:48:56.064Z,29.08
2022-12-22T01:52:00.066Z,29.95
2022-12-22T01:55:05.066Z,27.42
2022-12-22T01:58:09.536Z,24.67
2022-12-22T02:01:13.564Z,24.08
2022-12-22T02:04:18.534Z,25.85
2022-12-22T02:07:59.646Z,25.40
2022-12-22T02:11:48.310Z,28.25
2022-12-22T02:15:09.967Z,24.90
2022-12-22T02:18:34.035Z,29.00
2022-12-22T02:21:42.917Z,23.58
2022-12-22T02:25:16.791Z,24.92
2022-12-22T02:28:22.399Z,26.95
2022-12-22T02:31:26.518Z,25.42
2022-12-22T02:34:34.358Z,22.80
2022-12-22T02:38:08.505Z,23.88
2022-12-22T02:41:49.180Z,25.45
2022-12-22T02:45:16.192Z,19.92
2022-12-22T02:48:30.350Z,18.73
2022-12-22T02:51:42.891Z,21.77
2022-12-22T02:54:48.342Z,18.40
2022-12-22T02:57:52.858Z,21.80
2022-12-22T03:00:58.682Z,19.02
2022-12-22T03:04:02.464Z,19.27
2022-12-22T03:07:06.413Z,17.88
2022-12-22T03:10:10.380Z,17.27
2022-12-22T03:13:17.822Z,17.52
2022-12-22T03:16:21.946Z,21.73
2022-12-22T03:19:25.923Z,17.38
2022-12-22T03:22:29.713Z,19.58
2022-12-22T03:25:33.675Z,21.38
2022-12-22T03:28:24.379Z,19.23
2022-12-22T03:31:09.443Z,18.58
2022-12-22T03:33:55.094Z,23.50
2022-12-22T03:36:40.378Z,19.83
2022-12-22T03:39:25.697Z,19.83
2022-12-22T03:42:32.579Z,18.20
2022-12-22T03:45:36.365Z,23.42
2022-12-22T03:48:21.724Z,20.48
2022-12-22T03:51:07.665Z,21.92
2022-12-22T03:53:52.829Z,21.83
2022-12-22T03:56:39.037Z,22.42
2022-12-22T03:59:24.187Z,22.05
2022-12-22T04:02:09.598Z,22.75
2022-12-22T04:04:54.889Z,24.95
2022-12-22T04:07:40.467Z,23.98
2022-12-22T04:10:44.384Z,22.98
2022-12-22T04:13:29.802Z,19.90
2022-12-22T04:16:15.293Z,24.08
2022-12-22T04:19:00.697Z,20.80
2022-12-22T04:21:46.181Z,21.55
2022-12-22T04:24:31.654Z,21.23
2022-12-22T04:27:17.592Z,20.15
2022-12-22T04:30:04.858Z,20.80
2022-12-22T04:32:49.997Z,21.42
2022-12-22T04:35:35.434Z,21.73
2022-12-22T04:38:20.792Z,22.60
2022-12-22T04:41:06.512Z,24.65
2022-12-22T04:43:51.603Z,21.52
2022-12-22T04:46:36.890Z,20.17
2022-12-22T04:49:22.316Z,23.42
2022-12-22T04:52:08.012Z,25.05
2022-12-22T04:54:53.057Z,25.33
2022-12-22T04:57:40.781Z,22.58
2022-12-22T05:00:26.135Z,23.15
2022-12-22T05:03:11.614Z,20.13
2022-12-22T05:05:57.005Z,22.27
2022-12-22T05:08:42.378Z,21.30
2022-12-22T05:11:27.657Z,21.73
2022-12-22T05:14:13.084Z,21.13
2022-12-22T05:16:58.523Z,22.95
2022-12-22T05:19:43.928Z,21.70
2022-12-22T05:22:29.239Z,25.63
2022-12-22T05:25:19.756Z,25.20
2022-12-22T05:28:05.136Z,21.60
2022-12-22T05:30:50.411Z,23.33
2022-12-22T05:33:36.410Z,22.52
2022-12-22T05:36:21.928Z,23.83
2022-12-22T05:39:07.939Z,21.00
2022-12-22T05:41:53.124Z,21.88
2022-12-22T05:44:38.433Z,21.20
2022-12-22T05:47:23.762Z,21.00
2022-12-22T05:50:10.819Z,23.55
2022-12-22T05:52:56.220Z,22.17
2022-12-22T05:55:41.607Z,20.75
2022-12-22T05:58:27.066Z,21.35
2022-12-22T06:01:12.621Z,20.65
2022-12-22T06:04:00.584Z,19.85
2022-12-22T06:06:46.020Z,19.35
2022-12-22T06:09:31.351Z,19.95
2022-12-22T06:12:16.491Z,19.27
2022-12-22T06:15:01.831Z,19.30
2022-12-22T06:17:47.092Z,19.38
2022-12-22T06:20:32.538Z,20.20
2022-12-22T06:23:18.157Z,17.90
2022-12-22T06:26:03.661Z,20.95
2022-12-22T06:28:49.088Z,15.60
2022-12-22T06:31:34.502Z,17.33
2022-12-22T06:34:20.126Z,16.80
2022-12-22T06:37:05.307Z,19.02
2022-12-22T06:39:50.647Z,21.88
2022-12-22T06:42:54.716Z,22.75
2022-12-22T06:45:42.301Z,17.23
2022-12-22T06:48:27.608Z,17.60
2022-12-22T06:51:12.962Z,19.20
2022-12-22T06:53:58.378Z,17.77
2022-12-22T06:56:43.804Z,18.90
2022-12-22T06:59:29.104Z,19.98
2022-12-22T07:02:14.670Z,17.75
2022-12-22T07:04:59.950Z,17.00
2022-12-22T07:07:45.339Z,17.33
2022-12-22T07:10:49.206Z,16.77
2022-12-22T07:13:35.621Z,18.65
2022-12-22T07:16:21.705Z,19.30
2022-12-22T07:19:07.185Z,17.60
2022-12-22T07:21:52.456Z,20.60
2022-12-22T07:24:37.876Z,16.05
2022-12-22T07:27:23.729Z,18.80
2022-12-22T07:30:09.708Z,17.40
2022-12-22T07:32:55.250Z,13.63
2022-12-22T07:35:40.560Z,15.77
2022-12-22T07:38:25.851Z,14.27
2022-12-22T07:41:31.473Z,14.57
2022-12-22T07:44:16.874Z,13.77
2022-12-22T07:47:02.346Z,13.73
2022-12-22T07:50:06.269Z,17.10
2022-12-22T07:52:53.083Z,17.00
2022-12-22T07:55:38.128Z,15.13
2022-12-22T07:58:23.347Z,17.73
2022-12-22T08:01:08.677Z,17.20
2022-12-22T08:03:54.212Z,12.75
2022-12-22T08:06:39.919Z,17.33
2022-12-22T08:09:25.317Z,15.10
2022-12-22T08:12:10.803Z,13.65
2022-12-22T08:14:56.147Z,15.05
2022-12-22T08:17:41.722Z,14.93
2022-12-22T08:20:27.100Z,13.27
2022-12-22T08:23:13.515Z,11.00
2022-12-22T08:26:08.999Z,22.77
2022-12-22T08:29:12.461Z,12.18
2022-12-22T08:31:58.140Z,15.25
2022-12-22T08:34:43.590Z,16.33
2022-12-22T08:37:32.531Z,11.85
2022-12-22T08:40:25.467Z,12.48
2022-12-22T08:43:11.513Z,11.35
2022-12-22T08:45:56.793Z,11.60
2022-12-22T08:48:42.239Z,10.82
2022-12-22T08:51:27.595Z,10.60
2022-12-22T08:54:14.101Z,11.52
2022-12-22T08:56:59.626Z,11.18
2022-12-22T08:59:44.920Z,11.18
2022-12-22T09:02:30.554Z,14.77
2022-12-22T09:05:15.926Z,10.93
2022-12-22T09:08:02.622Z,11.38
2022-12-22T09:10:47.760Z,12.32
2022-12-22T09:13:33.128Z,12.30
2022-12-22T09:16:19.842Z,10.95
2022-12-22T09:19:06.439Z,9.48
2022-12-22T09:21:51.621Z,10.55
2022-12-22T09:24:37.195Z,12.80
2022-12-22T09:27:22.352Z,8.30
2022-12-22T09:30:08.271Z,9.35
2022-12-22T09:32:55.161Z,9.13
2022-12-22T09:35:43.539Z,7.85
2022-12-22T09:38:29.121Z,10.07
2022-12-22T09:41:32.915Z,11.23
2022-12-22T09:44:29.981Z,8.40
2022-12-22T09:47:25.681Z,9.95
2022-12-22T09:50:17.144Z,8.75
2022-12-22T09:53:04.901Z,6.65
2022-12-22T09:55:51.080Z,13.30
2022-12-22T09:58:36.214Z,7.88
2022-12-22T10:01:55.805Z,6.97
2022-12-22T10:05:09.840Z,9.00
2022-12-22T10:08:01.786Z,12.13
2022-12-22T10:10:46.915Z,8.10
2022-12-22T10:13:32.486Z,5.07
2022-12-22T10:16:28.612Z,6.32
2022-12-22T10:19:14.773Z,11.27
2022-12-22T10:22:34.967Z,7.57
2022-12-22T10:25:35.783Z,10.18
2022-12-22T10:28:39.476Z,6.05
2022-12-22T10:31:27.552Z,7.57
2022-12-22T10:34:16.722Z,6.38
2022-12-22T10:37:04.378Z,8.13
2022-12-22T10:39:49.495Z,7.55
2022-12-22T10:42:35.261Z,6.15
2022-12-22T10:45:24.101Z,5.60
2022-12-22T10:48:10.706Z,7.80
2022-12-22T10:50:57.760Z,5.80
2022-12-22T10:53:50.624Z,5.43
2022-12-22T10:56:35.915Z,8.68
2022-12-22T10:59:23.936Z,9.30
2022-12-22T11:02:21.435Z,4.25
2022-12-22T11:05:08.539Z,2.95
2022-12-22T11:07:55.079Z,5.18
2022-12-22T11:10:50.025Z,9.07
2022-12-22T11:13:41.095Z,4.10
2022-12-22T11:16:35.445Z,6.20
2022-12-22T11:19:44.960Z,8.05
2022-12-22T11:22:39.162Z,6.22
2022-12-22T11:25:42.772Z,9.98
2022-12-22T11:28:43.815Z,5.88
2022-12-22T11:31:47.939Z,6.30
2022-12-22T11:35:04.166Z,11.93
2022-12-22T11:38:12.280Z,11.15
2022-12-22T11:41:09.543Z,10.55
2022-12-22T11:44:00.903Z,13.05
2022-12-22T11:47:23.932Z,8.65
2022-12-22T11:51:01.104Z,6.53
2022-12-22T11:54:12.300Z,10.73
2022-12-22T11:57:28.682Z,6.65
2022-12-22T12:00:17.218Z,8.55
2022-12-22T12:03:14.610Z,6.80
2022-12-22T12:06:28.057Z,10.73
2022-12-22T12:12:22.698Z,6.72
2022-12-22T12:15:27.630Z,5.30
2022-12-22T12:18:32.349Z,4.72
2022-12-22T12:21:48.053Z,8.55
2022-12-22T12:24:48.735Z,9.43
2022-12-22T12:28:00.510Z,10.30
2022-12-22T12:30:58.676Z,10.47
2022-12-22T12:33:54.827Z,11.07
2022-12-22T12:36:52.070Z,7.75
2022-12-22T12:39:57.330Z,7.07
2022-12-22T12:42:45.140Z,10.27
2022-12-22T12:45:41.114Z,10.05
2022-12-22T12:48:26.309Z,6.15
2022-12-22T12:51:45.855Z,5.70
2022-12-22T12:54:40.803Z,7.28
2022-12-22T12:57:28.098Z,3.58
2022-12-22T13:00:49.836Z,5.53
2022-12-22T13:06:51.113Z,4.43
2022-12-22T13:10:06.494Z,3.42
2022-12-22T13:12:53.852Z,4.63
2022-12-22T13:15:42.171Z,5.70
2022-12-22T13:18:30.237Z,2.88
2022-12-22T13:27:51.439Z,3.47
2022-12-22T13:30:37.220Z,2.05
2022-12-22T13:30:51.017Z,7.20
2022-12-22T13:33:27.357Z,4.40
2022-12-22T13:36:20.092Z,3.65
2022-12-22T13:39:12.908Z,1.63
2022-12-22T13:41:58.268Z,3.22
2022-12-22T13:44:43.885Z,3.05
2022-12-22T13:47:29.448Z,5.90
2022-12-22T13:50:26.188Z,5.75
2022-12-22T13:53:49.459Z,1.80
2022-12-22T13:56:27.059Z,1.95
2022-12-22T13:59:21.016Z,7.03
2022-12-22T14:02:09.336Z,9.07
2022-12-22T14:05:11.600Z,7.22
2022-12-22T14:07:59.275Z,6.53
2022-12-22T14:10:45.362Z,6.57
2022-12-22T14:13:32.487Z,7.18
2022-12-22T14:16:18.002Z,9.43
2022-12-22T14:19:03.367Z,15.50
2022-12-22T14:21:57.708Z,6.38
2022-12-22T14:24:54.723Z,4.00
2022-12-22T14:27:47.608Z,3.00
2022-12-22T14:33:27.415Z,4.25
2022-12-22T14:36:23.869Z,3.03
2022-12-22T14:39:10.319Z,2.33
2022-12-22T14:41:58.534Z,2.30
2022-12-22T14:44:45.880Z,3.90
2022-12-22T14:47:35.929Z,2.85
2022-12-22T14:50:26.952Z,2.13
2022-12-22T14:53:14.295Z,1.63
2022-12-22T14:55:59.606Z,4.55
2022-12-22T14:58:46.728Z,3.17
2022-12-22T15:01:32.039Z,3.75
2022-12-22T15:04:20.018Z,3.72
2022-12-22T15:07:54.438Z,2.88
2022-12-22T15:10:26.058Z,2.67
2022-12-22T15:13:19.275Z,2.78
2022-12-22T15:16:04.924Z,2.50
2022-12-22T15:18:52.082Z,2.83
2022-12-22T15:21:37.690Z,2.88
2022-12-22T15:24:23.131Z,2.95
2022-12-22T15:27:08.658Z,3.15
2022-12-22T15:29:54.110Z,7.82
2022-12-22T15:32:40.984Z,2.92
2022-12-22T15:35:34.613Z,2.35
2022-12-22T15:38:22.198Z,3.58
2022-12-22T15:41:08.102Z,3.40
2022-12-22T15:43:57.843Z,3.20
2022-12-22T15:46:50.210Z,2.88
2022-12-22T15:49:35.779Z,2.95
2022-12-22T15:52:21.350Z,4.53
2022-12-22T15:55:06.951Z,3.22
2022-12-22T15:57:56.328Z,2.80
2022-12-22T16:00:41.507Z,3.92
2022-12-22T16:03:26.704Z,4.13
2022-12-22T16:06:17.336Z,4.63
2022-12-22T16:09:08.334Z,4.25
2022-12-22T16:11:54.381Z,3.75
2022-12-22T16:14:48.094Z,3.83
2022-12-22T16:17:35.763Z,7.82
2022-12-22T16:20:21.270Z,4.05
2022-12-22T16:23:13.126Z,3.95
2022-12-22T16:26:02.131Z,4.57
2022-12-22T16:28:48.336Z,3.55
2022-12-22T16:31:33.560Z,4.35
2022-12-22T16:34:19.022Z,5.45
2022-12-22T16:37:03.985Z,5.07
2022-12-22T16:39:49.184Z,5.72
2022-12-22T16:45:43.229Z,6.95
2022-12-22T16:48:35.256Z,5.30
2022-12-22T16:51:47.444Z,6.43
2022-12-22T16:54:33.000Z,5.88
2022-12-22T16:57:18.362Z,6.20
2022-12-22T17:00:04.287Z,5.25
2022-12-22T17:03:05.239Z,5.75
2022-12-22T17:05:55.683Z,6.75
2022-12-22T17:08:44.087Z,8.15
2022-12-22T17:11:31.559Z,7.28
2022-12-22T17:14:38.090Z,5.63
2022-12-22T17:17:30.363Z,5.97
2022-12-22T17:20:22.308Z,6.25
2022-12-22T17:23:15.299Z,7.47
2022-12-22T17:26:02.327Z,6.75
2022-12-22T17:28:48.611Z,6.57
2022-12-22T17:31:33.825Z,7.65
2022-12-22T17:34:19.556Z,6.45
2022-12-22T17:37:14.404Z,8.73
2022-12-22T17:40:01.515Z,7.53
2022-12-22T17:42:47.122Z,7.78
2022-12-22T17:45:32.358Z,8.35
2022-12-22T17:48:17.741Z,5.85
2022-12-22T17:51:03.292Z,7.80
2022-12-22T17:53:48.587Z,7.68
2022-12-22T17:56:34.206Z,11.90
2022-12-22T17:59:19.417Z,8.30
2022-12-22T18:02:04.799Z,9.13
2022-12-22T18:04:50.415Z,8.20
2022-12-22T18:07:43.236Z,9.52
2022-12-22T18:10:31.857Z,6.75
2022-12-22T18:13:21.262Z,7.78
2022-12-22T18:16:07.352Z,7.10
2022-12-22T18:18:52.737Z,9.18
2022-12-22T18:21:38.122Z,7.90
2022-12-22T18:24:23.463Z,5.65
2022-12-22T18:27:12.355Z,6.50
2022-12-22T18:29:57.801Z,5.32
2022-12-22T18:32:43.355Z,5.93
2022-12-22T18:35:28.997Z,8.82
2022-12-22T18:38:25.667Z,9.05
2022-12-22T18:41:23.511Z,6.38
2022-12-22T18:44:19.219Z,13.13
2022-12-22T18:47:04.712Z,8.27
2022-12-22T18:49:50.024Z,9.43
2022-12-22T18:52:35.953Z,10.90
2022-12-22T18:55:24.616Z,12.43
2022-12-22T18:58:13.876Z,7.35
2022-12-22T19:00:59.217Z,7.45
2022-12-22T19:03:45.682Z,10.27
2022-12-22T19:06:30.841Z,14.20
2022-12-22T19:09:16.313Z,21.77
2022-12-22T19:12:02.111Z,15.52
2022-12-22T19:14:50.861Z,12.55
2022-12-22T19:17:36.388Z,11.93
2022-12-22T19:20:23.569Z,10.13
2022-12-22T19:23:12.477Z,11.05
2022-12-22T19:26:08.430Z,13.52
2022-12-22T19:28:57.091Z,13.35
2022-12-22T19:31:43.766Z,10.57
2022-12-22T19:34:29.382Z,9.02
2022-12-22T19:37:14.743Z,14.30
2022-12-22T19:40:00.177Z,13.50
2022-12-22T19:42:48.139Z,13.45
2022-12-22T19:45:35.526Z,13.65
2022-12-22T19:48:24.581Z,12.40
2022-12-22T19:51:15.941Z,16.45
2022-12-22T19:54:03.198Z,15.88
2022-12-22T19:56:55.057Z,10.80
2022-12-22T19:59:44.225Z,11.20
2022-12-22T20:02:32.715Z,19.67
2022-12-22T20:05:24.237Z,14.98
2022-12-22T20:08:09.450Z,14.13
2022-12-22T20:10:58.710Z,13.05
2022-12-22T20:13:45.764Z,14.48
2022-12-22T20:16:31.206Z,12.18
2022-12-22T20:19:16.642Z,11.73
2022-12-22T20:22:02.016Z,14.50
2022-12-22T20:24:49.037Z,11.35
2022-12-22T20:27:34.805Z,14.00
2022-12-22T20:30:30.255Z,14.02
2022-12-22T20:33:17.370Z,11.63
2022-12-22T20:36:03.413Z,8.82
2022-12-22T20:38:52.239Z,12.35
2022-12-22T20:41:37.397Z,11.35
2022-12-22T20:44:23.029Z,11.45
2022-12-22T20:47:18.681Z,13.20
2022-12-22T20:50:28.002Z,15.15
2022-12-22T20:53:18.779Z,14.32
2022-12-22T20:56:06.549Z,13.77
2022-12-22T20:58:52.518Z,14.30
2022-12-22T21:01:37.664Z,15.27
2022-12-22T21:04:22.895Z,12.60
2022-12-22T21:07:09.129Z,15.70
2022-12-22T21:09:54.443Z,18.00
2022-12-22T21:12:39.900Z,16.08
2022-12-22T21:15:28.071Z,22.38
2022-12-22T21:18:19.299Z,18.15
2022-12-22T21:21:04.701Z,33.25
2022-12-22T21:23:50.210Z,22.02
2022-12-22T21:26:40.443Z,20.90
2022-12-22T21:29:27.182Z,22.15
2022-12-22T21:32:15.199Z,31.67
2022-12-22T21:35:07.513Z,22.15
2022-12-22T21:37:55.115Z,26.58
2022-12-22T21:40:40.445Z,24.83
2022-12-22T21:43:25.736Z,28.75
2022-12-22T21:46:12.945Z,28.60
2022-12-22T21:48:58.006Z,26.00
2022-12-22T21:51:43.668Z,39.00
2022-12-22T21:54:28.742Z,25.33
2022-12-22T21:57:16.474Z,26.58
2022-12-22T22:00:01.997Z,26.90
2022-12-22T22:02:48.162Z,26.05
2022-12-22T22:05:38.696Z,30.83
2022-12-22T22:08:25.085Z,25.02
2022-12-22T22:11:18.437Z,24.27
2022-12-22T22:14:03.541Z,25.33
2022-12-22T22:16:48.955Z,36.25
2022-12-22T22:19:34.391Z,24.73
2022-12-22T22:22:19.790Z,19.77
2022-12-22T22:25:05.846Z,19.60
2022-12-22T22:27:51.928Z,25.50
2022-12-22T22:30:39.511Z,26.83
2022-12-22T22:33:24.642Z,18.70
2022-12-22T22:36:10.385Z,26.15
2022-12-22T22:38:55.543Z,28.50
2022-12-22T22:41:43.515Z,22.65
2022-12-22T22:44:29.147Z,24.77
2022-12-22T22:47:14.542Z,23.77
2022-12-22T22:50:00.238Z,17.85
2022-12-22T22:52:45.942Z,17.98
2022-12-22T22:55:31.303Z,15.82
2022-12-22T22:58:16.802Z,23.02
2022-12-22T23:01:10.367Z,14.07
2022-12-22T23:03:55.800Z,14.00
2022-12-22T23:06:43.898Z,18.58
2022-12-22T23:09:28.985Z,23.90
2022-12-22T23:12:14.371Z,20.50
2022-12-22T23:15:01.813Z,16.80
2022-12-22T23:17:47.030Z,14.77
2022-12-22T23:20:32.463Z,16.75
2022-12-22T23:23:18.678Z,12.27
2022-12-22T23:26:04.754Z,19.42
2022-12-22T23:28:50.103Z,11.55
2022-12-22T23:31:35.366Z,16.30
2022-12-22T23:34:20.901Z,15.05
2022-12-22T23:37:06.380Z,13.75
2022-12-22T23:39:51.765Z,17.55
2022-12-22T23:42:37.231Z,11.32
2022-12-22T23:45:22.582Z,16.33
2022-12-22T23:48:09.026Z,14.70
2022-12-22T23:50:54.209Z,14.60
2022-12-22T23:53:39.532Z,17.60
2022-12-22T23:56:25.240Z,17.75
2022-12-22T23:59:10.527Z,14.50
